Kezdőlap
METAR-TAF:

METAR-TAF

Repülőterek :

Fairfield Municipal Airport

Fairfield, Iowa, Amerikai Egyesült Államok

földrajzi szélesség: 41-03N, földrajzi hosszúság: 091-59W, magasság: 244 m

Jelenlegi meteorológiai megfigyelések

A jelentés 14 perccel ezelõtt készült, 17:35 UTC
Északi szél 16 kt széllökések: 22 kt
Hőmérséklet 9°C
Páratartalom 100%
Légköri nyomás 1016 hPa
Látótávolság: 14.5 km
Kevés felhő 800 lábon
Szórványos felhőzet 1200 lábon
Szakadozott felhőzet 2100 lábon

METAR: KFFL 181735Z AUTO 01016G22KT 9SM FEW008 SCT012 BKN021 09/09 A3001 RMK A01

Idő: 12:49 (17:49 UTC)


TAF: hiányzik

Meteorológiai megfigyelések és előrejelzések több, mint 4000 repülőtéren (METAR és TAF jelentéseket).

A térképen piros és sárga pontok jelzik az elérhető meteorológiai állomásokat.

Mozgassa az egeret a pont fölött, hogy megjelenjen az állomás neve.

Azután kattintson az időjárási megfigyelések és előrejelzések megtekintéséhez.

A térkép megváltoztatása: kattintson a fekete keresztel jelölt zöld gombra ráközelítéshez, a vonallal jelölt zöld gombra távolításhoz, vagy a zöld nyilakra a szomszédos térképek eléréséhez.


METAR-TAF: